Time;durP1;ratioP1;P1;durP2;ratioP2;P2;SDS_P1;SDS_P2;PMS_P1;PMS_P2;Temp;Humidity;BMP_temperature;BMP_pressure;BME280_temperature;BME280_humidity;BME280_pressure;Samples;Min_cycle;Max_cycle;Signal;HPM_P1;HPM_P2
2021/11/21 00:00:40;;;;;;;11.85;4.67;;;;;;;8.06;60.68;99892.41;1750550;81;21550;-69
2021/11/21 00:03:07;;;;;;;13.28;4.85;;;;;;;8.07;60.59;99888.68;1737100;81;21058;-68
2021/11/21 00:05:34;;;;;;;11.38;4.90;;;;;;;8.05;60.57;99885.46;1743774;81;21599;-69
2021/11/21 00:08:01;;;;;;;13.28;4.75;;;;;;;8.05;60.59;99894.77;1738603;81;21098;-68
2021/11/21 00:10:33;;;;;;;15.43;5.40;;;;;;;8.07;60.59;99893.20;1759362;80;21154;-69
2021/11/21 00:12:57;;;;;;;13.83;5.30;;;;;;;8.05;60.65;99891.31;1778227;80;21166;-69
2021/11/21 00:15:24;;;;;;;15.70;5.17;;;;;;;8.02;60.74;99883.84;1763408;80;21052;-69
2021/11/21 00:17:51;;;;;;;12.43;4.37;;;;;;;8.02;60.83;99889.16;1761710;80;20999;-69
2021/11/21 00:20:19;;;;;;;11.60;4.55;;;;;;;8.01;60.92;99884.91;1763174;80;21046;-68
2021/11/21 00:22:46;;;;;;;11.90;4.87;;;;;;;8.07;60.93;99890.02;1762090;80;21113;-68
2021/11/21 00:25:12;;;;;;;14.55;4.87;;;;;;;8.08;60.95;99887.61;1760233;80;21053;-68
2021/11/21 00:27:39;;;;;;;14.80;5.50;;;;;;;8.12;60.98;99891.35;1770291;80;21078;-68
2021/11/21 00:30:06;;;;;;;15.48;5.53;;;;;;;8.15;60.98;99891.38;1747033;80;21471;-69
2021/11/21 00:32:33;;;;;;;14.13;5.25;;;;;;;8.16;61.03;99896.45;1771121;80;21301;-69
2021/11/21 00:35:00;;;;;;;15.25;5.30;;;;;;;8.17;61.03;99901.24;1769358;80;21705;-68
2021/11/21 00:37:28;;;;;;;12.47;4.70;;;;;;;8.17;61.07;99901.24;1759446;80;21148;-68
2021/11/21 00:39:56;;;;;;;10.70;4.60;;;;;;;8.17;61.08;99890.06;1762926;80;21046;-68
2021/11/21 00:42:24;;;;;;;10.85;4.20;;;;;;;8.19;61.07;99890.62;1771726;80;21071;-68
2021/11/21 00:44:51;;;;;;;10.38;4.97;;;;;;;8.22;61.06;99895.41;1768140;80;21504;-69
2021/11/21 00:47:17;;;;;;;10.82;4.50;;;;;;;8.24;61.08;99891.17;1775256;80;21078;-69
2021/11/21 00:49:44;;;;;;;14.53;5.30;;;;;;;8.25;61.12;99887.44;1764415;80;21153;-69
2021/11/21 00:52:12;;;;;;;11.95;4.87;;;;;;;8.24;61.13;99879.20;1771133;80;21839;-69
2021/11/21 00:54:51;;;;;;;10.40;4.70;;;;;;;8.25;61.22;99877.34;1770920;80;21107;-69
2021/11/21 00:57:15;;;;;;;9.35;4.20;;;;;;;8.26;61.26;99871.77;1759852;80;21118;-69
2021/11/21 00:59:42;;;;;;;12.68;5.03;;;;;;;8.29;61.33;99869.10;1765646;80;21062;-69
2021/11/21 01:02:12;;;;;;;13.28;4.70;;;;;;;8.27;61.46;99867.25;1747305;81;21095;-69
2021/11/21 01:04:41;;;;;;;14.87;5.03;;;;;;;8.16;61.73;99869.86;1748993;82;21595;-68
2021/11/21 01:07:10;;;;;;;13.48;5.08;;;;;;;8.22;61.75;99866.67;1729526;82;21085;-69
2021/11/21 01:09:39;;;;;;;12.55;4.83;;;;;;;8.23;61.78;99857.13;1735542;82;21007;-68
2021/11/21 01:12:08;;;;;;;12.23;4.92;;;;;;;8.23;61.88;99853.12;1729457;81;21112;-68
2021/11/21 01:14:35;;;;;;;11.68;4.65;;;;;;;8.27;61.85;99842.77;1750898;82;21111;-69
2021/11/21 01:17:05;;;;;;;9.35;4.42;;;;;;;8.32;61.83;99840.65;1726715;81;21012;-68
2021/11/21 01:19:33;;;;;;;13.53;5.33;;;;;;;8.35;61.75;99834.81;1757078;80;21058;-68
2021/11/21 01:21:59;;;;;;;14.63;4.90;;;;;;;8.37;61.74;99828.71;1757287;81;20972;-68
2021/11/21 01:24:26;;;;;;;11.95;5.30;;;;;;;8.39;61.78;99829.27;1758010;81;21054;-69
2021/11/21 01:26:53;;;;;;;12.58;5.17;;;;;;;8.39;61.85;99822.61;1732055;81;21138;-68
2021/11/21 01:29:20;;;;;;;11.57;5.08;;;;;;;8.40;61.98;99818.91;1724990;82;20992;-68
2021/11/21 01:31:47;;;;;;;10.85;5.08;;;;;;;8.39;62.14;99820.78;1723511;81;21461;-69
2021/11/21 01:34:16;;;;;;;12.50;5.80;;;;;;;8.38;62.25;99817.83;1752246;81;21486;-69
2021/11/21 01:36:43;;;;;;;10.80;4.80;;;;;;;8.41;62.32;99805.86;1725088;83;21444;-69
2021/11/21 01:39:10;;;;;;;11.75;5.20;;;;;;;8.46;62.39;99808.56;1751720;82;21975;-70
2021/11/21 01:41:37;;;;;;;10.68;4.97;;;;;;;8.51;62.40;99805.10;1751937;82;21072;-68
2021/11/21 01:44:05;;;;;;;13.50;5.10;;;;;;;8.53;62.39;99801.13;1752053;82;21029;-69
2021/11/21 01:46:34;;;;;;;12.10;4.78;;;;;;;8.56;62.38;99791.82;1731575;81;20968;-68
2021/11/21 01:49:01;;;;;;;11.38;4.40;;;;;;;8.60;62.37;99793.69;1732374;82;20955;-69
2021/11/21 01:51:31;;;;;;;11.50;5.00;;;;;;;8.63;62.32;99792.38;1732330;82;20948;-69
2021/11/21 01:53:58;;;;;;;11.10;4.80;;;;;;;8.66;62.23;99791.31;1737630;81;20987;-68
2021/11/21 01:56:26;;;;;;;12.63;5.25;;;;;;;8.70;62.14;99787.59;1733110;81;21665;-68
2021/11/21 01:58:56;;;;;;;12.88;5.37;;;;;;;8.70;62.08;99787.59;1725492;82;21130;-68
2021/11/21 02:01:23;;;;;;;12.28;5.35;;;;;;;8.72;62.08;99785.98;1733915;82;21032;-68
2021/11/21 02:03:50;;;;;;;11.43;5.30;;;;;;;8.72;62.15;99785.98;1735722;80;21150;-69
2021/11/21 02:06:16;;;;;;;10.82;4.65;;;;;;;8.65;62.24;99780.91;1772602;80;20980;-68
2021/11/21 02:08:43;;;;;;;11.22;4.55;;;;;;;8.66;62.28;99775.88;1760081;81;21010;-68
2021/11/21 02:11:10;;;;;;;11.78;5.20;;;;;;;8.67;62.36;99776.93;1742077;82;21000;-70
2021/11/21 02:13:37;;;;;;;10.82;4.85;;;;;;;8.70;62.43;99778.27;1760159;81;21428;-69
2021/11/21 02:16:04;;;;;;;12.03;4.72;;;;;;;8.72;62.51;99770.01;1768116;80;21136;-69
2021/11/21 02:18:31;;;;;;;10.72;5.25;;;;;;;8.75;62.56;99770.28;1763312;80;20995;-69
2021/11/21 02:20:57;;;;;;;12.28;5.30;;;;;;;8.81;62.45;99773.22;1757215;81;20991;-70
2021/11/21 02:23:25;;;;;;;9.73;4.95;;;;;;;8.83;62.38;99774.30;1760093;80;21043;-69
2021/11/21 02:25:52;;;;;;;9.80;5.25;;;;;;;8.85;62.35;99771.65;1760131;81;20992;-70
2021/11/21 02:28:21;;;;;;;12.58;5.40;;;;;;;8.88;62.36;99775.12;1760086;81;21059;-69
2021/11/21 02:30:48;;;;;;;11.78;5.22;;;;;;;8.87;62.38;99778.83;1759826;81;21019;-69
2021/11/21 02:33:19;;;;;;;10.05;5.20;;;;;;;8.89;62.39;99776.70;1760137;80;21502;-68
2021/11/21 02:35:48;;;;;;;13.03;5.53;;;;;;;8.90;62.41;99771.64;1734131;80;21038;-68
2021/11/21 02:38:16;;;;;;;10.72;4.95;;;;;;;8.90;62.36;99765.52;1725604;83;21095;-68
2021/11/21 02:40:42;;;;;;;10.25;4.97;;;;;;;8.89;62.35;99762.06;1733912;82;21092;-68
2021/11/21 02:43:09;;;;;;;12.13;5.72;;;;;;;8.87;62.39;99754.06;1734446;81;21419;-69
2021/11/21 02:45:36;;;;;;;11.08;5.67;;;;;;;8.83;62.48;99767.64;1730378;83;21546;-69
2021/11/21 02:48:04;;;;;;;11.48;5.67;;;;;;;8.80;62.64;99760.98;1730528;83;21115;-69
2021/11/21 02:50:31;;;;;;;12.37;5.70;;;;;;;8.76;62.82;99761.78;1730639;81;21510;-69
2021/11/21 02:52:59;;;;;;;11.08;5.67;;;;;;;8.72;63.05;99759.36;1736435;81;21129;-69
2021/11/21 02:55:31;;;;;;;12.10;5.92;;;;;;;8.72;63.17;99750.04;1754588;81;21022;-68
2021/11/21 02:57:59;;;;;;;12.13;6.10;;;;;;;8.70;63.36;99733.02;1764159;81;20984;-68
2021/11/21 03:00:27;;;;;;;10.13;5.83;;;;;;;8.68;63.50;99733.26;1764376;81;21035;-68
2021/11/21 03:02:54;;;;;;;12.07;6.05;;;;;;;8.67;63.56;99725.55;1737975;81;21019;-68
2021/11/21 03:05:21;;;;;;;11.30;5.35;;;;;;;8.68;63.61;99720.48;1734949;81;21147;-68
2021/11/21 03:07:49;;;;;;;12.35;5.72;;;;;;;8.71;63.60;99723.16;1739102;81;20983;-68
2021/11/21 03:10:19;;;;;;;9.20;5.37;;;;;;;8.70;63.61;99723.69;1739078;81;21066;-68
2021/11/21 03:12:49;;;;;;;13.13;5.58;;;;;;;8.63;63.70;99719.16;1732909;82;20980;-68
2021/11/21 03:15:18;;;;;;;10.70;5.55;;;;;;;8.60;63.91;99725.81;1731503;81;21003;-68
2021/11/21 03:17:44;;;;;;;12.18;6.08;;;;;;;8.57;64.13;99722.88;1741565;81;21153;-68
2021/11/21 03:20:15;;;;;;;11.05;5.78;;;;;;;8.55;64.46;99707.69;1764541;81;21420;-68
2021/11/21 03:22:42;;;;;;;10.90;5.70;;;;;;;8.53;64.68;99707.97;1763990;81;21015;-68
2021/11/21 03:25:11;;;;;;;10.10;6.35;;;;;;;8.54;64.92;99713.55;1764340;81;21427;-68
2021/11/21 03:27:38;;;;;;;11.45;6.20;;;;;;;8.54;65.07;99711.42;1764291;81;21636;-68
2021/11/21 03:30:07;;;;;;;11.43;6.35;;;;;;;8.53;65.41;99713.29;1764217;81;21397;-67
2021/11/21 03:32:34;;;;;;;12.35;6.45;;;;;;;8.52;65.88;99713.00;1764170;81;21031;-68
2021/11/21 03:35:01;;;;;;;13.10;6.92;;;;;;;8.56;66.35;99712.77;1764213;81;20960;-68
2021/11/21 03:37:28;;;;;;;11.60;6.58;;;;;;;8.61;66.83;99711.42;1764068;81;20952;-69
2021/11/21 03:39:55;;;;;;;13.48;7.05;;;;;;;8.66;67.41;99712.78;1764314;81;21113;-68
2021/11/21 03:42:22;;;;;;;12.03;7.50;;;;;;;8.73;67.91;99719.71;1764018;81;21143;-68
2021/11/21 03:44:48;;;;;;;10.70;6.78;;;;;;;8.81;68.01;99722.62;1764344;81;21047;-67
2021/11/21 03:47:15;;;;;;;10.75;7.28;;;;;;;8.88;68.00;99720.52;1762306;81;20991;-68
2021/11/21 03:49:43;;;;;;;13.20;7.47;;;;;;;8.95;68.09;99724.25;1761024;81;21051;-67
2021/11/21 03:52:10;;;;;;;11.85;7.00;;;;;;;8.98;68.13;99721.03;1764067;81;21151;-68
2021/11/21 03:54:37;;;;;;;10.68;6.97;;;;;;;9.02;68.12;99716.79;1754661;81;21136;-68
2021/11/21 03:57:05;;;;;;;11.35;7.28;;;;;;;9.08;68.10;99723.72;1746449;82;21097;-68
2021/11/21 03:59:33;;;;;;;9.78;6.78;;;;;;;9.10;68.10;99731.43;1746865;82;21133;-68
2021/11/21 04:02:00;;;;;;;12.30;8.30;;;;;;;9.11;68.10;99719.19;1746512;82;20999;-68
2021/11/21 04:04:27;;;;;;;12.23;7.92;;;;;;;9.12;68.25;99719.45;1746475;82;20951;-68
2021/11/21 04:06:53;;;;;;;12.47;7.40;;;;;;;9.14;68.30;99719.96;1746587;82;21998;-68
2021/11/21 04:09:21;;;;;;;11.45;7.47;;;;;;;9.16;68.33;99719.17;1746462;81;21023;-68
2021/11/21 04:11:49;;;;;;;8.98;6.65;;;;;;;9.20;68.44;99725.30;1748353;81;21468;-68
2021/11/21 04:14:17;;;;;;;11.88;7.03;;;;;;;9.23;68.42;99719.44;1764088;81;21513;-68
2021/11/21 04:16:44;;;;;;;10.48;7.00;;;;;;;9.27;68.40;99719.16;1764237;81;21014;-68
2021/11/21 04:19:11;;;;;;;10.28;7.17;;;;;;;9.30;68.47;99719.95;1761365;81;21127;-68
2021/11/21 04:21:38;;;;;;;11.30;7.72;;;;;;;9.32;68.46;99720.50;1746640;82;21195;-69
2021/11/21 04:24:06;;;;;;;10.40;7.08;;;;;;;9.35;68.41;99718.09;1746330;82;20994;-68
2021/11/21 04:26:34;;;;;;;10.30;7.30;;;;;;;9.38;68.52;99714.89;1746199;82;21517;-70
2021/11/21 04:29:00;;;;;;;11.33;7.80;;;;;;;9.41;68.41;99714.89;1746411;82;21014;-69
2021/11/21 04:31:27;;;;;;;10.72;7.62;;;;;;;9.45;68.34;99721.81;1746226;81;21816;-69
2021/11/21 04:33:54;;;;;;;10.75;8.25;;;;;;;9.45;68.36;99723.14;1746503;82;21038;-68
2021/11/21 04:36:23;;;;;;;12.18;7.70;;;;;;;9.44;68.53;99710.86;1746504;82;21529;-69
2021/11/21 04:38:50;;;;;;;11.97;7.50;;;;;;;9.45;68.60;99707.95;1746540;82;21018;-69
2021/11/21 04:41:17;;;;;;;8.70;7.12;;;;;;;9.46;68.58;99716.20;1746655;82;21470;-68
2021/11/21 04:43:46;;;;;;;10.75;8.30;;;;;;;9.47;68.67;99723.12;1746292;82;21126;-68
2021/11/21 04:46:12;;;;;;;10.48;7.85;;;;;;;9.47;68.59;99716.45;1746286;82;21070;-69
2021/11/21 04:48:39;;;;;;;10.38;7.60;;;;;;;9.47;68.57;99719.12;1740876;81;20968;-68
2021/11/21 04:51:06;;;;;;;10.08;7.72;;;;;;;9.47;68.73;99711.66;1730316;83;20975;-68
2021/11/21 04:53:34;;;;;;;10.40;7.75;;;;;;;9.46;69.04;99706.08;1730358;83;21026;-69
2021/11/21 04:56:02;;;;;;;10.43;7.17;;;;;;;9.47;69.02;99708.45;1730464;83;21951;-68
2021/11/21 04:58:29;;;;;;;10.78;8.35;;;;;;;9.50;69.07;99710.58;1730338;83;20972;-69
2021/11/21 05:00:55;;;;;;;10.85;8.15;;;;;;;9.48;69.27;99703.41;1730752;83;21011;-68
2021/11/21 05:03:23;;;;;;;11.50;7.75;;;;;;;9.52;69.09;99705.80;1730199;83;21147;-68
2021/11/21 05:05:49;;;;;;;10.28;8.13;;;;;;;9.51;69.15;99700.20;1730497;83;21090;-68
2021/11/21 05:08:18;;;;;;;10.48;7.65;;;;;;;9.50;69.19;99695.13;1730444;83;21155;-69
2021/11/21 05:10:45;;;;;;;10.53;7.83;;;;;;;9.51;69.25;99697.54;1730265;83;21558;-69
2021/11/21 05:13:12;;;;;;;10.53;8.00;;;;;;;9.50;69.31;99691.92;1730532;83;21111;-69
2021/11/21 05:15:39;;;;;;;10.10;8.15;;;;;;;9.49;69.61;99707.66;1730328;83;20983;-69
2021/11/21 05:18:06;;;;;;;12.10;8.53;;;;;;;9.53;69.62;99702.05;1739105;81;21046;-69
2021/11/21 05:20:33;;;;;;;9.20;7.45;;;;;;;9.40;70.25;99710.61;1764076;81;21092;-69
2021/11/21 05:23:00;;;;;;;10.90;8.40;;;;;;;9.38;70.62;99714.09;1764129;81;21465;-69
2021/11/21 05:25:27;;;;;;;9.48;7.85;;;;;;;9.40;70.92;99723.94;1764152;81;21015;-69
2021/11/21 05:27:54;;;;;;;9.55;7.60;;;;;;;9.71;70.57;99704.68;1764042;81;21063;-67
2021/11/21 05:30:21;;;;;;;10.55;7.97;;;;;;;9.82;70.25;99704.09;1764245;81;20932;-69
2021/11/21 05:32:49;;;;;;;10.95;8.05;;;;;;;9.89;70.12;99701.94;1764194;81;21126;-69
2021/11/21 05:35:17;;;;;;;9.25;7.42;;;;;;;9.97;69.94;99699.23;1764162;81;21104;-69
2021/11/21 05:37:46;;;;;;;9.90;7.67;;;;;;;10.02;69.87;99697.34;1764129;81;21580;-69
2021/11/21 05:40:13;;;;;;;10.18;8.10;;;;;;;10.17;69.62;99692.99;1764318;81;21046;-69
2021/11/21 05:42:39;;;;;;;10.08;8.35;;;;;;;10.24;69.26;99694.30;1764031;81;21125;-69
2021/11/21 05:45:08;;;;;;;9.30;7.62;;;;;;;10.31;68.99;99684.15;1764162;81;21135;-69
2021/11/21 05:47:35;;;;;;;9.68;7.28;;;;;;;10.36;68.69;99695.86;1763854;81;20983;-68
2021/11/21 05:50:04;;;;;;;9.55;7.53;;;;;;;10.40;68.53;99693.72;1764202;81;21095;-68
2021/11/21 05:52:31;;;;;;;9.45;7.55;;;;;;;10.44;68.30;99692.62;1764227;81;20963;-69
2021/11/21 05:54:59;;;;;;;8.78;7.47;;;;;;;10.45;68.12;99679.52;1764253;81;21054;-70
2021/11/21 05:57:25;;;;;;;9.55;7.83;;;;;;;10.46;68.05;99687.78;1764024;81;21820;-69
2021/11/21 05:59:52;;;;;;;8.60;6.75;;;;;;;10.48;67.93;99685.10;1764259;81;21118;-69
2021/11/21 06:02:19;;;;;;;9.33;7.62;;;;;;;10.51;67.84;99675.75;1764232;81;21502;-69
2021/11/21 06:04:46;;;;;;;10.18;7.42;;;;;;;10.55;67.74;99685.58;1764037;81;21000;-69
2021/11/21 06:07:13;;;;;;;10.05;7.47;;;;;;;10.60;67.59;99675.42;1764073;81;21022;-69
2021/11/21 06:09:41;;;;;;;10.85;7.95;;;;;;;10.65;67.46;99684.72;1764303;81;21522;-68
2021/11/21 06:12:08;;;;;;;9.90;8.00;;;;;;;10.73;67.35;99686.81;1764034;81;21137;-68
2021/11/21 06:14:36;;;;;;;10.28;7.53;;;;;;;10.80;67.16;99686.48;1764267;81;21068;-68
2021/11/21 06:17:04;;;;;;;9.60;7.53;;;;;;;10.87;66.95;99690.97;1760042;81;21229;-69
2021/11/21 06:19:31;;;;;;;10.48;7.17;;;;;;;10.95;66.82;99687.67;1733982;81;20948;-69
2021/11/21 06:21:58;;;;;;;9.98;8.08;;;;;;;11.06;66.59;99692.96;1733961;81;21085;-68
2021/11/21 06:24:24;;;;;;;11.53;7.60;;;;;;;11.15;66.39;99688.58;1734019;81;20945;-68
2021/11/21 06:26:51;;;;;;;9.78;7.40;;;;;;;11.24;66.20;99681.55;1733769;81;21047;-69
2021/11/21 06:29:18;;;;;;;9.50;7.80;;;;;;;11.35;66.05;99685.73;1734101;81;21090;-68
2021/11/21 06:31:45;;;;;;;10.40;8.30;;;;;;;11.45;65.65;99675.44;1733975;81;21165;-68
2021/11/21 06:34:12;;;;;;;10.13;7.75;;;;;;;11.50;65.21;99669.50;1733991;81;21151;-70
2021/11/21 06:36:39;;;;;;;8.83;7.45;;;;;;;11.55;65.00;99672.68;1733950;81;21443;-69
2021/11/21 06:39:06;;;;;;;10.25;8.55;;;;;;;11.59;64.82;99668.89;1715111;82;21007;-68
2021/11/21 06:41:37;;;;;;;11.48;8.25;;;;;;;11.60;64.63;99681.97;1734129;82;21083;-68
2021/11/21 06:44:06;;;;;;;10.93;8.50;;;;;;;11.62;64.53;99681.70;1734343;81;21051;-68
2021/11/21 06:46:34;;;;;;;11.35;8.35;;;;;;;11.62;64.49;99680.36;1734376;81;21543;-68
2021/11/21 06:49:01;;;;;;;11.18;8.73;;;;;;;11.60;64.43;99681.97;1764145;81;20947;-68
2021/11/21 06:51:29;;;;;;;9.60;8.23;;;;;;;11.55;64.51;99680.70;1764361;81;21074;-68
2021/11/21 06:53:56;;;;;;;11.12;8.73;;;;;;;11.56;64.55;99679.61;1764232;81;21007;-68
2021/11/21 06:56:24;;;;;;;10.25;8.48;;;;;;;11.56;64.53;99680.16;1764545;81;21062;-69
2021/11/21 06:58:51;;;;;;;9.63;8.10;;;;;;;11.56;64.65;99684.17;1764157;81;21098;-68
2021/11/21 07:01:18;;;;;;;10.20;8.60;;;;;;;11.60;64.55;99675.28;1764342;81;20979;-68
2021/11/21 07:03:45;;;;;;;11.20;8.98;;;;;;;11.62;64.46;99673.13;1764120;81;21031;-67
2021/11/21 07:06:35;;;;;;;12.15;9.15;;;;;;;11.62;64.34;99676.34;1764581;81;21031;-68
2021/11/21 07:09:05;;;;;;;11.93;9.78;;;;;;;11.61;64.36;99675.53;1758943;81;21003;-68
2021/11/21 07:11:32;;;;;;;10.95;9.00;;;;;;;11.63;64.31;99673.37;1764434;81;21110;-68
2021/11/21 07:14:00;;;;;;;11.60;9.48;;;;;;;11.70;64.25;99670.36;1764114;81;20985;-69
2021/11/21 07:16:27;;;;;;;11.65;10.13;;;;;;;11.76;64.17;99679.13;1764426;81;21046;-68
2021/11/21 07:18:55;;;;;;;12.82;10.58;;;;;;;11.78;64.04;99676.42;1764143;81;21054;-68
2021/11/21 07:21:21;;;;;;;13.75;10.13;;;;;;;11.84;63.88;99672.61;1764498;81;20956;-69
2021/11/21 07:23:48;;;;;;;11.97;9.98;;;;;;;11.89;63.75;99659.73;1764160;81;21111;-69
2021/11/21 07:26:15;;;;;;;11.48;9.50;;;;;;;11.98;63.61;99668.71;1764217;81;21143;-69
2021/11/21 07:28:41;;;;;;;12.35;9.20;;;;;;;12.05;63.24;99671.83;1750207;81;21014;-68
2021/11/21 07:31:10;;;;;;;12.33;10.20;;;;;;;12.13;63.08;99659.12;1746599;82;20999;-69
2021/11/21 07:33:37;;;;;;;13.32;10.05;;;;;;;12.17;62.71;99672.20;1746678;82;21079;-68
2021/11/21 07:36:04;;;;;;;11.20;9.45;;;;;;;12.20;62.50;99665.45;1746667;82;21113;-68
2021/11/21 07:38:31;;;;;;;13.00;9.65;;;;;;;12.22;62.41;99660.61;1747194;81;21047;-68
2021/11/21 07:40:58;;;;;;;12.80;10.28;;;;;;;12.21;62.29;99665.73;1746962;82;20999;-68
2021/11/21 07:43:25;;;;;;;12.75;9.88;;;;;;;12.22;62.26;99675.89;1746741;82;21133;-68
2021/11/21 07:45:53;;;;;;;13.22;10.72;;;;;;;12.20;62.27;99668.92;1743216;81;21629;-69
2021/11/21 07:48:20;;;;;;;14.45;10.72;;;;;;;12.18;62.21;99667.64;1734022;82;21149;-70
2021/11/21 07:50:48;;;;;;;14.25;10.40;;;;;;;12.16;62.28;99668.46;1733948;82;21035;-69
2021/11/21 07:53:15;;;;;;;13.40;10.55;;;;;;;12.13;62.36;99676.52;1733788;82;20995;-69
2021/11/21 07:55:42;;;;;;;16.93;13.30;;;;;;;12.12;62.45;99676.82;1734016;82;20992;-69
2021/11/21 07:58:08;;;;;;;34.50;23.20;;;;;;;12.09;62.58;99668.03;1733955;82;21569;-69
2021/11/21 08:00:35;;;;;;;24.18;15.93;;;;;;;12.05;62.75;99654.42;1757358;81;21794;-69
2021/11/21 08:03:02;;;;;;;27.98;17.75;;;;;;;12.07;62.84;99667.51;1764575;81;20983;-69
2021/11/21 08:05:30;;;;;;;19.48;14.38;;;;;;;12.13;62.87;99670.38;1764162;81;21009;-69
2021/11/21 08:07:57;;;;;;;20.62;15.65;;;;;;;12.17;62.81;99666.03;1764040;81;21006;-69
2021/11/21 08:10:24;;;;;;;20.50;14.15;;;;;;;12.16;62.83;99671.92;1752263;81;21063;-69
2021/11/21 08:12:50;;;;;;;18.73;14.00;;;;;;;12.16;62.81;99672.48;1758322;81;21134;-69
2021/11/21 08:15:17;;;;;;;15.15;11.85;;;;;;;12.14;62.88;99670.62;1764208;81;21126;-69
2021/11/21 08:17:46;;;;;;;16.25;13.28;;;;;;;12.10;62.95;99669.61;1764587;81;21529;-69
2021/11/21 08:20:12;;;;;;;15.30;12.30;;;;;;;12.10;63.06;99677.09;1763767;81;21062;-69
2021/11/21 08:22:39;;;;;;;16.40;12.57;;;;;;;12.15;63.01;99673.57;1764265;81;20995;-69
2021/11/21 08:25:16;;;;;;;16.42;13.38;;;;;;;12.18;62.92;99666.30;1758042;81;21685;-69
2021/11/21 08:27:44;;;;;;;20.37;16.10;;;;;;;12.17;62.91;99678.08;1746364;82;21058;-69
2021/11/21 08:30:12;;;;;;;19.42;14.80;;;;;;;12.14;62.88;99663.41;1746609;82;20951;-69
2021/11/21 08:32:39;;;;;;;25.48;17.40;;;;;;;12.18;62.84;99675.67;1747159;81;21509;-70
2021/11/21 08:35:07;;;;;;;25.17;16.30;;;;;;;12.14;62.82;99674.63;1746941;82;20994;-69
2021/11/21 08:37:34;;;;;;;24.45;16.00;;;;;;;12.14;62.82;99673.30;1746514;82;21130;-70
2021/11/21 08:40:01;;;;;;;20.37;15.20;;;;;;;12.15;62.73;99673.57;1746307;82;21069;-70
2021/11/21 08:42:28;;;;;;;17.13;12.43;;;;;;;12.16;62.73;99662.56;1746876;82;22041;-69
2021/11/21 08:44:55;;;;;;;14.00;11.33;;;;;;;12.18;62.67;99669.77;1746253;81;21991;-69
2021/11/21 08:47:22;;;;;;;15.45;12.30;;;;;;;12.20;62.51;99680.17;1764077;81;21591;-69
2021/11/21 08:49:49;;;;;;;19.48;14.85;;;;;;;12.19;62.54;99671.90;1764151;81;21428;-69
2021/11/21 08:52:16;;;;;;;20.90;14.27;;;;;;;12.22;62.39;99662.50;1764231;81;21098;-70
2021/11/21 08:54:42;;;;;;;15.37;12.00;;;;;;;12.25;62.23;99668.62;1752875;81;21289;-69
2021/11/21 08:57:10;;;;;;;14.23;10.60;;;;;;;12.23;62.02;99668.10;1746692;82;21271;-69
2021/11/21 08:59:37;;;;;;;15.03;12.03;;;;;;;12.22;61.87;99665.97;1746619;82;21103;-70
2021/11/21 09:02:03;;;;;;;16.65;12.15;;;;;;;12.24;61.84;99661.13;1746745;81;21252;-70
2021/11/21 09:04:31;;;;;;;12.47;9.80;;;;;;;12.26;61.35;99662.17;1746583;82;20999;-69
2021/11/21 09:06:58;;;;;;;13.20;10.00;;;;;;;12.28;61.15;99667.49;1746549;82;21317;-69
2021/11/21 09:09:24;;;;;;;10.75;8.88;;;;;;;12.30;60.57;99667.98;1746601;82;20987;-68
2021/11/21 09:11:51;;;;;;;13.80;9.90;;;;;;;12.33;60.48;99663.39;1746581;82;20959;-68
2021/11/21 09:14:18;;;;;;;11.53;9.00;;;;;;;12.39;60.20;99658.77;1746166;81;21199;-68
2021/11/21 09:16:46;;;;;;;13.97;10.30;;;;;;;12.43;60.00;99661.10;1733887;82;21692;-67
2021/11/21 09:19:12;;;;;;;12.30;9.23;;;;;;;12.49;59.80;99656.47;1741606;81;21167;-68
2021/11/21 09:21:42;;;;;;;15.53;11.00;;;;;;;12.54;59.56;99655.07;1758013;81;21201;-67
2021/11/21 09:24:08;;;;;;;11.97;8.67;;;;;;;12.57;59.45;99660.64;1746594;82;21691;-68
2021/11/21 09:26:36;;;;;;;9.57;7.63;;;;;;;12.60;59.34;99648.52;1746707;82;21956;-68
2021/11/21 09:29:03;;;;;;;9.60;7.47;;;;;;;12.63;58.74;99660.78;1746439;82;21914;-70
2021/11/21 09:31:30;;;;;;;8.93;7.23;;;;;;;12.60;58.65;99646.66;1746179;82;21186;-69
2021/11/21 09:33:56;;;;;;;8.47;7.03;;;;;;;12.59;58.04;99652.30;1746428;82;21251;-68
2021/11/21 09:36:23;;;;;;;9.53;7.03;;;;;;;12.65;58.16;99645.23;1746597;81;21869;-69
2021/11/21 09:38:50;;;;;;;12.30;9.27;;;;;;;12.68;58.02;99638.49;1756759;81;21264;-70
2021/11/21 09:41:17;;;;;;;13.90;9.47;;;;;;;12.69;57.65;99638.73;1764191;81;21355;-68
2021/11/21 09:43:45;;;;;;;12.10;8.07;;;;;;;12.68;57.58;99641.17;1764137;81;21245;-68
2021/11/21 09:46:14;;;;;;;12.30;8.37;;;;;;;12.68;57.36;99650.00;1764395;81;21714;-69
2021/11/21 09:48:40;;;;;;;8.68;6.60;;;;;;;12.69;57.30;99649.45;1756680;81;21369;-68
2021/11/21 09:51:07;;;;;;;9.77;6.43;;;;;;;12.70;57.31;99634.98;1747377;81;21217;-68
2021/11/21 09:53:34;;;;;;;8.73;6.30;;;;;;;12.66;57.08;99630.73;1746366;82;21273;-69
2021/11/21 09:56:01;;;;;;;9.17;6.50;;;;;;;12.69;57.20;99645.43;1746541;82;21195;-69
2021/11/21 09:58:27;;;;;;;11.37;7.90;;;;;;;12.75;57.31;99635.44;1746322;82;21569;-69
2021/11/21 10:00:54;;;;;;;9.20;6.70;;;;;;;12.77;57.31;99634.06;1746439;81;21286;-69
2021/11/21 10:03:21;;;;;;;12.30;8.73;;;;;;;12.79;57.13;99612.31;1746463;82;21338;-69
2021/11/21 10:05:53;;;;;;;8.60;6.90;;;;;;;12.79;57.23;99625.16;1758805;81;21286;-68
2021/11/21 10:08:24;;;;;;;9.80;7.53;;;;;;;12.84;57.22;99633.13;1749449;81;21306;-69
2021/11/21 10:11:08;;;;;;;9.17;6.90;;;;;;;12.87;57.19;99625.05;1746460;82;21312;-69
2021/11/21 10:13:42;;;;;;;11.47;8.13;;;;;;;12.88;57.06;99624.75;1759452;81;21288;-69
2021/11/21 10:16:31;;;;;;;10.10;7.63;;;;;;;12.95;56.86;99625.70;1763659;81;21932;-69
2021/11/21 10:19:08;;;;;;;9.77;7.47;;;;;;;12.96;56.70;99619.79;1763858;81;21153;-68
2021/11/21 10:21:37;;;;;;;10.13;7.77;;;;;;;13.00;56.82;99620.27;1764153;81;21283;-68
2021/11/21 10:24:27;;;;;;;10.73;8.20;;;;;;;13.05;56.70;99607.30;1764009;81;21228;-69
2021/11/21 10:27:16;;;;;;;14.33;9.93;;;;;;;13.04;56.81;99621.80;1764211;81;21321;-69
2021/11/21 10:29:50;;;;;;;13.73;10.10;;;;;;;13.07;56.91;99611.28;1764093;81;21796;-69
2021/11/21 10:32:31;;;;;;;11.03;9.03;;;;;;;13.14;56.74;99614.91;1763702;81;21302;-70
2021/11/21 10:35:09;;;;;;;9.75;7.90;;;;;;;13.13;56.70;99621.38;1749488;81;21178;-69
2021/11/21 10:37:38;;;;;;;11.60;8.83;;;;;;;13.09;56.69;99613.66;1719136;82;21031;-70
2021/11/21 10:40:14;;;;;;;12.37;9.03;;;;;;;13.11;56.81;99612.27;1746998;82;21181;-69
2021/11/21 10:42:45;;;;;;;12.23;8.80;;;;;;;13.13;56.67;99612.78;1744901;81;21224;-69
2021/11/21 10:45:17;;;;;;;23.00;13.47;;;;;;;13.07;56.20;99631.39;1747128;81;21279;-69
2021/11/21 10:47:50;;;;;;;;;;;;;;;13.09;56.38;99589.52;1748692;82;21242;-69
2021/11/21 10:50:34;;;;;;;11.60;8.87;;;;;;;13.11;56.30;99602.09;1746605;81;20135;-68
2021/11/21 10:53:07;;;;;;;10.60;7.87;;;;;;;13.14;56.16;99592.13;1745753;82;21325;-68
2021/11/21 10:55:37;;;;;;;11.40;8.30;;;;;;;13.13;55.84;99594.02;1746504;82;21367;-68
2021/11/21 10:58:15;;;;;;;13.10;8.77;;;;;;;13.15;55.71;99602.53;1746280;82;21190;-68
2021/11/21 11:00:43;;;;;;;12.53;9.17;;;;;;;13.14;55.60;99600.16;1746748;82;21137;-69
2021/11/21 11:03:21;;;;;;;16.87;11.70;;;;;;;13.13;55.79;99595.91;1749031;81;21631;-69
2021/11/21 11:05:49;;;;;;;13.23;8.70;;;;;;;13.14;55.95;99589.44;1764514;81;21174;-69
2021/11/21 11:08:29;;;;;;;13.03;9.07;;;;;;;13.06;56.03;99590.11;1757507;81;21180;-68
2021/11/21 11:10:56;;;;;;;12.63;9.20;;;;;;;13.05;56.10;99579.16;1746375;82;21826;-69
2021/11/21 11:13:24;;;;;;;11.50;8.70;;;;;;;12.96;55.93;99590.30;1759247;81;21284;-69
2021/11/21 11:15:55;;;;;;;11.27;8.67;;;;;;;12.89;56.28;99583.44;1764113;81;21340;-69
2021/11/21 11:18:24;;;;;;;;;;;;;;;12.89;56.26;99576.74;1766903;81;21784;-69
2021/11/21 11:20:53;;;;;;;15.87;10.67;;;;;;;12.90;56.07;99570.86;1734314;81;20972;-69
2021/11/21 11:23:20;;;;;;;12.67;9.20;;;;;;;12.91;56.05;99575.13;1764147;81;21385;-69
2021/11/21 11:25:48;;;;;;;14.93;10.80;;;;;;;12.86;55.65;99571.97;1764611;81;21223;-69
2021/11/21 11:28:33;;;;;;;16.07;10.47;;;;;;;12.88;55.59;99565.78;1764533;81;21341;-69
2021/11/21 11:31:01;;;;;;;11.43;8.00;;;;;;;12.87;55.33;99584.30;1764311;81;21294;-69
2021/11/21 11:33:39;;;;;;;12.37;9.00;;;;;;;12.85;55.14;99570.39;1710547;81;21160;-69